Terminal Aerodrome Forecast
Issued by NWS

Home | Current Version | Previous Version | Text Only | Print | Product List | Glossary On
Versions: 1 2 3 4 5 6 7 8 9 10 11 12 13 14 15 16 17 18
000
FTUS43 KAPX 200500
TAFPLN
TAF
KPLN 200526Z 2006/2106 21010KT P6SM VCSH OVC035 WS008/18030KT
     FM201400 23011G20KT 6SM -SHRA OVC015
     FM202200 25006KT 4SM BR OVC012=

USA.gov is the U.S. government's official web portal to all federal, state and local government web resources and services.